Depue, IL (61322)

7:07 AM CST on January 24, 2017 (GMT -0600)
Illinois Valley Regional-Duncan | | Change Station
Active Advisory: Flood Warning

Elev 653 ft 41.35 °N, 89.15 °W | Updated 12 minutes ago

Overcast
Overcast
34 °F
Feels Like 29 °F
N
5
Wind Variable Wind from West

Today
High -- | Low -- °F
--% Chance of Precip.
Yesterday
High -- | Low -- °F
Precip. -- in
Pressure 29.90 in
Visibility 5.0 miles
Clouds Overcast 1900 ft
Windchill 29 °F
Dew Point 32 °F
Humidity 94%
Rainfall 0.00 in
Snow Depth Not available.
7:15 AM 5:04 PM
Waning Crescent, 12% visible
METAR KVYS 241255Z AUTO 27004KT 5SM BR OVC019 01/00 A2990 RMK AO2 T00090000
Pressure 29.90 in
Visibility 5.0 miles
Clouds Overcast 1900 ft
Windchill 29 °F
Dew Point 32 °F
Humidity 94%
Rainfall 0.00 in
Snow Depth Not available.
7:15 AM 5:04 PM
Waning Crescent, 12% visible
METAR KVYS 241255Z AUTO 27004KT 5SM BR OVC019 01/00 A2990 RMK AO2 T00090000

Get Your Daily Forecast Email!

Thanks for signing up!

Be on the lookout for a verification email in your inbox.

You'll start receiving the daily forecast at 8 AM.

×

10-Day Weather Forecast

Almanac

Astronomy

Jan. 24, 2017 Rise Set
Actual Time
Civil Twilight
Nautical Twilight
Astronomical Twilight
Moon
Length of Visible Light
Length of Day
Tomorrow will be .
, % of the Moon is Illuminated

Today's Extremes

State Highs State Lows

Community

WunderPhotos

Upload Photos

1,962,540 photos uploaded!

WunderBlog® & News

Nearby

Air Quality

  Air Quality AQ Index Pollutant
Not available.

Snow Depth

Station Depth Elevation

Earthquake Activity

City Distance Mag. Time & Date
Minimum magnitude displayed is 2.5.

Coastal Water Temperatures

Place Temperature

Stations

Nearby Weather Stations

Station Location Temp. Windchill Dew Point Humidity Wind Precip. Elev Updated Type
                   

Watches & Warnings

Flood Warning
Issued: 9:08 PM CST Jan. 23, 2017 – National Weather Service

The Flood Warning continues for
the Illinois River at La Salle.
* Until Thursday morning.
* At 845 PM Monday the stage was 22.0 feet.
* Flood stage is 20.0 feet.
* Minor flooding is occurring and minor flooding is forecast.
* Forecast... the river will continue to fall to below flood stage by
Thursday morning.
* Impact... at 22.0 feet... Riverside parking lot at Starved Rock State
Park floods.


Lat... Lon 4137 8896 4135 8929 4126 8930 4128 8896